sensor_id;sensor_type;location;lat;lon;timestamp;pressure;altitude;pressure_sealevel;temperature;humidity
10958;BME280;5531;42.570;23.676;2023-03-31T00:02:06;91958.75;;;6.81;67.81
10958;BME280;5531;42.570;23.676;2023-03-31T00:04:38;91969.16;;;6.81;68.63
10958;BME280;5531;42.570;23.676;2023-03-31T00:07:12;91963.16;;;6.81;68.58
10958;BME280;5531;42.570;23.676;2023-03-31T00:09:41;91952.47;;;6.75;68.50
10958;BME280;5531;42.570;23.676;2023-03-31T00:12:12;91955.75;;;6.69;68.87
10958;BME280;5531;42.570;23.676;2023-03-31T00:14:44;91952.81;;;6.72;68.68
10958;BME280;5531;42.570;23.676;2023-03-31T00:17:14;91952.19;;;6.70;68.71
10958;BME280;5531;42.570;23.676;2023-03-31T00:19:43;91950.88;;;6.66;68.48
10958;BME280;5531;42.570;23.676;2023-03-31T00:22:14;91952.19;;;6.70;68.75
10958;BME280;5531;42.570;23.676;2023-03-31T00:24:47;91943.91;;;6.67;69.00
10958;BME280;5531;42.570;23.676;2023-03-31T00:27:16;91946.56;;;6.58;69.02
10958;BME280;5531;42.570;23.676;2023-03-31T00:29:48;91946.75;;;6.57;69.34
10958;BME280;5531;42.570;23.676;2023-03-31T00:32:17;91944.66;;;6.52;69.31
10958;BME280;5531;42.570;23.676;2023-03-31T00:34:46;91949.88;;;6.52;69.00
10958;BME280;5531;42.570;23.676;2023-03-31T00:37:15;91946.44;;;6.52;68.89
10958;BME280;5531;42.570;23.676;2023-03-31T00:39:44;91943.03;;;6.51;69.12
10958;BME280;5531;42.570;23.676;2023-03-31T00:42:13;91937.03;;;6.51;68.75
10958;BME280;5531;42.570;23.676;2023-03-31T00:47:45;91933.13;;;6.47;69.25
10958;BME280;5531;42.570;23.676;2023-03-31T00:50:18;91925.59;;;6.60;68.83
10958;BME280;5531;42.570;23.676;2023-03-31T00:52:50;91929.50;;;6.56;68.82
10958;BME280;5531;42.570;23.676;2023-03-31T00:55:26;91926.84;;;6.64;67.56
10958;BME280;5531;42.570;23.676;2023-03-31T00:57:59;91929.25;;;6.66;67.52
10958;BME280;5531;42.570;23.676;2023-03-31T01:00:29;91917.06;;;6.66;68.12
10958;BME280;5531;42.570;23.676;2023-03-31T01:03:04;91914.09;;;6.69;67.13
10958;BME280;5531;42.570;23.676;2023-03-31T01:05:37;91916.00;;;6.75;67.35
10958;BME280;5531;42.570;23.676;2023-03-31T01:08:11;91910.09;;;6.82;67.30
10958;BME280;5531;42.570;23.676;2023-03-31T01:10:43;91907.69;;;6.80;67.01
10958;BME280;5531;42.570;23.676;2023-03-31T01:13:15;91902.91;;;6.84;67.09
10958;BME280;5531;42.570;23.676;2023-03-31T01:15:45;91913.97;;;6.86;66.58
10958;BME280;5531;42.570;23.676;2023-03-31T01:18:17;91914.41;;;6.89;66.41
10958;BME280;5531;42.570;23.676;2023-03-31T01:21:20;91914.19;;;6.76;67.64
10958;BME280;5531;42.570;23.676;2023-03-31T01:24:35;91905.78;;;6.74;67.11
10958;BME280;5531;42.570;23.676;2023-03-31T01:27:36;91906.22;;;6.77;67.24
10958;BME280;5531;42.570;23.676;2023-03-31T01:30:31;91905.53;;;6.84;67.53
10958;BME280;5531;42.570;23.676;2023-03-31T01:33:26;91922.53;;;6.94;66.62
10958;BME280;5531;42.570;23.676;2023-03-31T01:42:00;91914.09;;;7.07;66.27
10958;BME280;5531;42.570;23.676;2023-03-31T01:44:41;91908.16;;;7.13;65.76
10958;BME280;5531;42.570;23.676;2023-03-31T01:47:17;91908.25;;;7.20;65.52
10958;BME280;5531;42.570;23.676;2023-03-31T01:49:52;91905.75;;;7.27;64.20
10958;BME280;5531;42.570;23.676;2023-03-31T01:52:27;91909.88;;;7.36;64.77
10958;BME280;5531;42.570;23.676;2023-03-31T01:55:05;91901.44;;;7.34;64.77
10958;BME280;5531;42.570;23.676;2023-03-31T01:57:40;91911.59;;;7.44;64.51
10958;BME280;5531;42.570;23.676;2023-03-31T02:00:15;91908.09;;;7.51;64.06
10958;BME280;5531;42.570;23.676;2023-03-31T02:02:48;91911.31;;;7.53;64.69
10958;BME280;5531;42.570;23.676;2023-03-31T02:05:24;91907.53;;;7.71;63.90
10958;BME280;5531;42.570;23.676;2023-03-31T02:07:56;91908.41;;;7.78;63.93
10958;BME280;5531;42.570;23.676;2023-03-31T02:10:30;91915.50;;;7.84;64.41
10958;BME280;5531;42.570;23.676;2023-03-31T02:13:02;91909.03;;;7.80;63.06
10958;BME280;5531;42.570;23.676;2023-03-31T02:15:35;91922.06;;;7.80;64.58
10958;BME280;5531;42.570;23.676;2023-03-31T02:18:08;91929.00;;;7.88;63.45
10958;BME280;5531;42.570;23.676;2023-03-31T02:20:40;91939.06;;;7.91;62.49
10958;BME280;5531;42.570;23.676;2023-03-31T02:23:12;91940.41;;;8.02;62.36
10958;BME280;5531;42.570;23.676;2023-03-31T02:25:46;91948.13;;;8.10;62.01
10958;BME280;5531;42.570;23.676;2023-03-31T02:28:22;91931.09;;;8.14;62.33
10958;BME280;5531;42.570;23.676;2023-03-31T02:31:02;91940.81;;;8.20;62.43
10958;BME280;5531;42.570;23.676;2023-03-31T02:33:33;91939.44;;;8.24;62.60
10958;BME280;5531;42.570;23.676;2023-03-31T02:36:04;91941.69;;;8.27;62.92
10958;BME280;5531;42.570;23.676;2023-03-31T02:38:37;91946.53;;;8.31;63.14
10958;BME280;5531;42.570;23.676;2023-03-31T02:41:07;91948.41;;;8.37;64.56
10958;BME280;5531;42.570;23.676;2023-03-31T02:43:39;91953.75;;;8.29;64.98
10958;BME280;5531;42.570;23.676;2023-03-31T02:46:08;91946.47;;;8.24;66.72
10958;BME280;5531;42.570;23.676;2023-03-31T02:48:40;91952.69;;;8.23;66.91
10958;BME280;5531;42.570;23.676;2023-03-31T02:54:36;91970.78;;;8.10;69.54
10958;BME280;5531;42.570;23.676;2023-03-31T02:57:20;91966.50;;;8.02;70.26
10958;BME280;5531;42.570;23.676;2023-03-31T03:00:07;91982.69;;;7.97;73.41
10958;BME280;5531;42.570;23.676;2023-03-31T03:02:50;91973.41;;;7.95;74.45
10958;BME280;5531;42.570;23.676;2023-03-31T03:05:29;91966.22;;;7.97;75.32
10958;BME280;5531;42.570;23.676;2023-03-31T03:08:10;91977.66;;;7.96;76.72
10958;BME280;5531;42.570;23.676;2023-03-31T03:10:51;91972.91;;;7.84;77.88
10958;BME280;5531;42.570;23.676;2023-03-31T03:13:30;91963.34;;;7.77;81.21
10958;BME280;5531;42.570;23.676;2023-03-31T03:16:11;91953.56;;;7.64;85.15
10958;BME280;5531;42.570;23.676;2023-03-31T03:18:43;91952.31;;;7.45;86.54
10958;BME280;5531;42.570;23.676;2023-03-31T03:21:12;91951.38;;;7.23;94.21
10958;BME280;5531;42.570;23.676;2023-03-31T03:23:41;91951.53;;;7.06;96.69
10958;BME280;5531;42.570;23.676;2023-03-31T03:26:10;91954.31;;;7.05;96.84
10958;BME280;5531;42.570;23.676;2023-03-31T03:28:39;91945.88;;;7.03;98.41
10958;BME280;5531;42.570;23.676;2023-03-31T03:31:11;91938.41;;;7.00;100.00
10958;BME280;5531;42.570;23.676;2023-03-31T03:33:40;91931.63;;;6.75;98.88
10958;BME280;5531;42.570;23.676;2023-03-31T03:36:09;91928.34;;;6.82;97.13
10958;BME280;5531;42.570;23.676;2023-03-31T03:38:38;91918.38;;;6.85;96.10
10958;BME280;5531;42.570;23.676;2023-03-31T03:41:08;91921.50;;;6.95;96.49
10958;BME280;5531;42.570;23.676;2023-03-31T03:43:37;91918.28;;;6.93;92.75
10958;BME280;5531;42.570;23.676;2023-03-31T03:46:06;91920.09;;;6.93;96.56
10958;BME280;5531;42.570;23.676;2023-03-31T03:48:38;91914.81;;;7.01;97.32
10958;BME280;5531;42.570;23.676;2023-03-31T03:51:07;91923.31;;;6.95;97.15
10958;BME280;5531;42.570;23.676;2023-03-31T03:53:36;91912.72;;;6.96;96.35
10958;BME280;5531;42.570;23.676;2023-03-31T03:56:05;91909.41;;;6.88;97.77
10958;BME280;5531;42.570;23.676;2023-03-31T03:58:34;91915.41;;;6.88;98.13
10958;BME280;5531;42.570;23.676;2023-03-31T04:01:04;91908.03;;;6.92;97.40
10958;BME280;5531;42.570;23.676;2023-03-31T04:03:33;91909.69;;;6.93;96.49
10958;BME280;5531;42.570;23.676;2023-03-31T04:06:05;91907.63;;;7.03;96.05
10958;BME280;5531;42.570;23.676;2023-03-31T04:08:34;91893.34;;;7.14;95.65
10958;BME280;5531;42.570;23.676;2023-03-31T04:11:10;91894.50;;;7.26;95.03
10958;BME280;5531;42.570;23.676;2023-03-31T04:13:42;91878.97;;;7.33;93.99
10958;BME280;5531;42.570;23.676;2023-03-31T04:16:11;91885.00;;;7.33;93.45
10958;BME280;5531;42.570;23.676;2023-03-31T04:18:41;91878.78;;;7.49;92.57
10958;BME280;5531;42.570;23.676;2023-03-31T04:21:16;91870.13;;;7.64;92.36
10958;BME280;5531;42.570;23.676;2023-03-31T04:23:48;91869.03;;;7.73;91.34
10958;BME280;5531;42.570;23.676;2023-03-31T04:26:24;91871.72;;;7.80;91.21
10958;BME280;5531;42.570;23.676;2023-03-31T04:28:56;91874.78;;;7.83;91.16
10958;BME280;5531;42.570;23.676;2023-03-31T04:31:26;91887.28;;;7.73;90.50
10958;BME280;5531;42.570;23.676;2023-03-31T04:33:56;91889.91;;;7.73;90.49
10958;BME280;5531;42.570;23.676;2023-03-31T04:36:30;91884.31;;;7.76;90.33
10958;BME280;5531;42.570;23.676;2023-03-31T04:39:00;91891.69;;;7.87;90.80
10958;BME280;5531;42.570;23.676;2023-03-31T04:41:29;91893.34;;;7.95;90.03
10958;BME280;5531;42.570;23.676;2023-03-31T04:43:58;91896.44;;;7.99;89.72
10958;BME280;5531;42.570;23.676;2023-03-31T04:46:27;91891.09;;;8.07;89.88
10958;BME280;5531;42.570;23.676;2023-03-31T04:48:56;91891.78;;;8.16;89.52
10958;BME280;5531;42.570;23.676;2023-03-31T04:51:25;91886.63;;;8.22;88.00
10958;BME280;5531;42.570;23.676;2023-03-31T04:53:58;91890.69;;;8.25;87.69
10958;BME280;5531;42.570;23.676;2023-03-31T04:56:27;91886.94;;;8.13;89.44
10958;BME280;5531;42.570;23.676;2023-03-31T04:58:56;91886.75;;;8.14;88.24
10958;BME280;5531;42.570;23.676;2023-03-31T05:01:25;91876.81;;;8.24;87.80
10958;BME280;5531;42.570;23.676;2023-03-31T05:03:57;91878.72;;;8.37;86.68
10958;BME280;5531;42.570;23.676;2023-03-31T05:06:27;91882.06;;;8.46;86.70
10958;BME280;5531;42.570;23.676;2023-03-31T05:08:59;91880.06;;;8.48;87.92
10958;BME280;5531;42.570;23.676;2023-03-31T05:11:28;91879.56;;;8.59;86.53
10958;BME280;5531;42.570;23.676;2023-03-31T05:13:57;91879.44;;;8.68;86.92
10958;BME280;5531;42.570;23.676;2023-03-31T05:16:26;91880.25;;;8.68;87.74
10958;BME280;5531;42.570;23.676;2023-03-31T05:18:55;91877.34;;;8.56;86.70
10958;BME280;5531;42.570;23.676;2023-03-31T05:21:24;91884.50;;;8.48;87.53
10958;BME280;5531;42.570;23.676;2023-03-31T05:23:58;91884.69;;;8.46;88.03
10958;BME280;5531;42.570;23.676;2023-03-31T05:26:27;91872.16;;;8.41;88.36
10958;BME280;5531;42.570;23.676;2023-03-31T05:28:56;91871.34;;;8.41;87.69
10958;BME280;5531;42.570;23.676;2023-03-31T05:31:25;91868.84;;;8.48;87.95
10958;BME280;5531;42.570;23.676;2023-03-31T05:33:55;91860.81;;;8.49;87.87
10958;BME280;5531;42.570;23.676;2023-03-31T05:36:24;91862.22;;;8.52;88.32
10958;BME280;5531;42.570;23.676;2023-03-31T05:38:53;91852.66;;;8.59;87.89
10958;BME280;5531;42.570;23.676;2023-03-31T05:41:24;91858.31;;;8.62;87.74
10958;BME280;5531;42.570;23.676;2023-03-31T05:43:53;91850.16;;;8.72;87.40
10958;BME280;5531;42.570;23.676;2023-03-31T05:46:22;91850.19;;;8.79;87.22
10958;BME280;5531;42.570;23.676;2023-03-31T05:48:52;91851.22;;;8.85;86.43
10958;BME280;5531;42.570;23.676;2023-03-31T05:51:21;91853.63;;;8.79;86.97
10958;BME280;5531;42.570;23.676;2023-03-31T05:53:50;91854.50;;;8.87;86.63
10958;BME280;5531;42.570;23.676;2023-03-31T05:56:19;91842.41;;;8.86;85.67
10958;BME280;5531;42.570;23.676;2023-03-31T05:58:51;91856.31;;;8.93;86.01
10958;BME280;5531;42.570;23.676;2023-03-31T06:01:20;91855.28;;;8.87;86.00
10958;BME280;5531;42.570;23.676;2023-03-31T06:03:49;91865.59;;;8.95;85.64
10958;BME280;5531;42.570;23.676;2023-03-31T06:06:19;91863.81;;;9.03;86.79
10958;BME280;5531;42.570;23.676;2023-03-31T06:08:48;91857.59;;;9.04;86.04
10958;BME280;5531;42.570;23.676;2023-03-31T06:11:19;91868.44;;;9.01;85.18
10958;BME280;5531;42.570;23.676;2023-03-31T06:13:51;91855.41;;;9.07;84.83
10958;BME280;5531;42.570;23.676;2023-03-31T06:16:20;91866.78;;;9.21;86.15
10958;BME280;5531;42.570;23.676;2023-03-31T06:18:49;91863.16;;;9.29;84.18
10958;BME280;5531;42.570;23.676;2023-03-31T06:21:20;91866.22;;;9.32;84.29
10958;BME280;5531;42.570;23.676;2023-03-31T06:23:49;91857.84;;;9.44;84.71
10958;BME280;5531;42.570;23.676;2023-03-31T06:26:21;91871.59;;;9.59;84.64
10958;BME280;5531;42.570;23.676;2023-03-31T06:28:53;91870.19;;;9.57;84.61
10958;BME280;5531;42.570;23.676;2023-03-31T06:31:24;91876.81;;;9.59;84.92
10958;BME280;5531;42.570;23.676;2023-03-31T06:34:00;91873.81;;;9.62;85.67
10958;BME280;5531;42.570;23.676;2023-03-31T06:36:29;91876.88;;;9.72;85.01
10958;BME280;5531;42.570;23.676;2023-03-31T06:38:58;91863.56;;;9.67;84.28
10958;BME280;5531;42.570;23.676;2023-03-31T06:41:28;91870.44;;;9.68;83.68
10958;BME280;5531;42.570;23.676;2023-03-31T06:44:00;91871.00;;;9.64;84.63
10958;BME280;5531;42.570;23.676;2023-03-31T06:46:29;91871.44;;;9.74;85.39
10958;BME280;5531;42.570;23.676;2023-03-31T06:48:58;91871.25;;;9.76;84.73
10958;BME280;5531;42.570;23.676;2023-03-31T06:51:27;91873.47;;;9.72;83.98
10958;BME280;5531;42.570;23.676;2023-03-31T06:53:57;91867.84;;;9.75;83.32
10958;BME280;5531;42.570;23.676;2023-03-31T06:56:26;91875.84;;;9.67;82.58
10958;BME280;5531;42.570;23.676;2023-03-31T06:58:55;91873.06;;;9.75;82.80
10958;BME280;5531;42.570;23.676;2023-03-31T07:01:26;91872.69;;;9.78;82.79
10958;BME280;5531;42.570;23.676;2023-03-31T07:03:56;91871.88;;;9.78;83.68
10958;BME280;5531;42.570;23.676;2023-03-31T07:06:25;91876.66;;;9.67;83.07
10958;BME280;5531;42.570;23.676;2023-03-31T07:08:54;91872.47;;;9.73;83.99
10958;BME280;5531;42.570;23.676;2023-03-31T07:11:23;91877.31;;;9.76;82.82
10958;BME280;5531;42.570;23.676;2023-03-31T07:13:52;91872.09;;;9.83;84.00
10958;BME280;5531;42.570;23.676;2023-03-31T07:16:21;91871.44;;;9.67;83.73
10958;BME280;5531;42.570;23.676;2023-03-31T07:18:52;91866.25;;;9.81;83.12
10958;BME280;5531;42.570;23.676;2023-03-31T07:21:24;91860.66;;;9.90;82.72
10958;BME280;5531;42.570;23.676;2023-03-31T07:23:54;91861.66;;;9.89;81.10
10958;BME280;5531;42.570;23.676;2023-03-31T07:26:25;91861.13;;;10.07;81.31
10958;BME280;5531;42.570;23.676;2023-03-31T07:28:54;91847.84;;;10.16;80.48
10958;BME280;5531;42.570;23.676;2023-03-31T07:31:24;91830.53;;;10.15;80.94
10958;BME280;5531;42.570;23.676;2023-03-31T07:33:56;91827.75;;;10.36;79.86
10958;BME280;5531;42.570;23.676;2023-03-31T07:36:25;91810.66;;;10.67;80.27
10958;BME280;5531;42.570;23.676;2023-03-31T07:38:54;91825.34;;;10.88;77.11
10958;BME280;5531;42.570;23.676;2023-03-31T07:41:24;91825.75;;;11.12;77.31
10958;BME280;5531;42.570;23.676;2023-03-31T07:43:53;91818.25;;;11.22;74.93
10958;BME280;5531;42.570;23.676;2023-03-31T07:46:27;91814.25;;;11.19;74.40
10958;BME280;5531;42.570;23.676;2023-03-31T07:48:59;91819.06;;;11.23;73.34
10958;BME280;5531;42.570;23.676;2023-03-31T07:51:29;91815.63;;;11.29;73.09
10958;BME280;5531;42.570;23.676;2023-03-31T07:53:58;91820.63;;;11.44;71.80
10958;BME280;5531;42.570;23.676;2023-03-31T07:56:27;91832.28;;;11.54;70.25
10958;BME280;5531;42.570;23.676;2023-03-31T07:58:56;91823.34;;;11.76;67.67
10958;BME280;5531;42.570;23.676;2023-03-31T08:01:25;91813.19;;;11.92;66.67
10958;BME280;5531;42.570;23.676;2023-03-31T08:03:54;91817.19;;;12.02;65.34
10958;BME280;5531;42.570;23.676;2023-03-31T08:06:26;91818.59;;;12.04;64.95
10958;BME280;5531;42.570;23.676;2023-03-31T08:08:55;91808.91;;;12.37;65.21
10958;BME280;5531;42.570;23.676;2023-03-31T08:11:30;91808.16;;;12.55;65.43
10958;BME280;5531;42.570;23.676;2023-03-31T08:13:59;91806.31;;;12.62;65.64
10958;BME280;5531;42.570;23.676;2023-03-31T08:16:29;91814.78;;;12.64;65.80
10958;BME280;5531;42.570;23.676;2023-03-31T08:18:58;91817.28;;;12.52;66.72
10958;BME280;5531;42.570;23.676;2023-03-31T08:21:30;91815.28;;;12.22;66.76
10958;BME280;5531;42.570;23.676;2023-03-31T08:23:59;91817.94;;;12.09;67.76
10958;BME280;5531;42.570;23.676;2023-03-31T08:26:28;91816.22;;;11.96;68.48
10958;BME280;5531;42.570;23.676;2023-03-31T08:28:57;91802.28;;;11.96;69.86
10958;BME280;5531;42.570;23.676;2023-03-31T08:31:26;91811.53;;;12.05;69.76
10958;BME280;5531;42.570;23.676;2023-03-31T08:33:56;91813.31;;;12.11;69.19
10958;BME280;5531;42.570;23.676;2023-03-31T08:36:26;91810.28;;;12.14;71.03
10958;BME280;5531;42.570;23.676;2023-03-31T08:38:58;91796.47;;;12.19;72.02
10958;BME280;5531;42.570;23.676;2023-03-31T08:41:36;91792.22;;;12.24;71.79
10958;BME280;5531;42.570;23.676;2023-03-31T08:44:15;91798.91;;;12.20;69.04
10958;BME280;5531;42.570;23.676;2023-03-31T08:47:00;91797.53;;;12.18;70.28
10958;BME280;5531;42.570;23.676;2023-03-31T08:49:38;91795.81;;;12.30;71.79
10958;BME280;5531;42.570;23.676;2023-03-31T08:52:13;91790.25;;;12.45;72.37
10958;BME280;5531;42.570;23.676;2023-03-31T08:54:48;91788.50;;;12.64;70.04
10958;BME280;5531;42.570;23.676;2023-03-31T08:57:23;91781.53;;;12.76;70.09
10958;BME280;5531;42.570;23.676;2023-03-31T08:59:53;91783.75;;;12.79;68.88
10958;BME280;5531;42.570;23.676;2023-03-31T09:02:28;91784.28;;;13.07;70.46
10958;BME280;5531;42.570;23.676;2023-03-31T09:05:17;91773.19;;;13.23;65.80
10958;BME280;5531;42.570;23.676;2023-03-31T09:07:56;91772.31;;;13.29;66.58
10958;BME280;5531;42.570;23.676;2023-03-31T09:10:37;91752.81;;;13.18;64.47
10958;BME280;5531;42.570;23.676;2023-03-31T09:13:18;91753.53;;;13.26;65.18
10958;BME280;5531;42.570;23.676;2023-03-31T09:15:57;91759.81;;;13.25;64.35
10958;BME280;5531;42.570;23.676;2023-03-31T09:18:31;91760.22;;;13.47;66.08
10958;BME280;5531;42.570;23.676;2023-03-31T09:21:05;91761.38;;;13.51;62.55
10958;BME280;5531;42.570;23.676;2023-03-31T09:23:38;91762.25;;;13.63;64.54
10958;BME280;5531;42.570;23.676;2023-03-31T09:26:20;91764.16;;;13.74;61.87
10958;BME280;5531;42.570;23.676;2023-03-31T09:28:53;91769.06;;;13.71;62.05
10958;BME280;5531;42.570;23.676;2023-03-31T09:31:26;91770.22;;;13.75;60.57
10958;BME280;5531;42.570;23.676;2023-03-31T09:34:00;91775.69;;;13.92;61.88
10958;BME280;5531;42.570;23.676;2023-03-31T09:36:29;91778.00;;;14.00;59.47
10958;BME280;5531;42.570;23.676;2023-03-31T09:38:58;91773.69;;;14.18;62.18
10958;BME280;5531;42.570;23.676;2023-03-31T09:41:29;91762.78;;;14.44;59.42
10958;BME280;5531;42.570;23.676;2023-03-31T09:43:58;91757.31;;;14.58;60.95
10958;BME280;5531;42.570;23.676;2023-03-31T09:46:29;91755.19;;;14.78;59.35
10958;BME280;5531;42.570;23.676;2023-03-31T09:49:02;91752.44;;;14.97;54.74
10958;BME280;5531;42.570;23.676;2023-03-31T09:51:34;91749.31;;;15.24;56.19
10958;BME280;5531;42.570;23.676;2023-03-31T09:54:09;91760.25;;;15.27;53.98
10958;BME280;5531;42.570;23.676;2023-03-31T09:56:50;91750.97;;;15.01;53.24
10958;BME280;5531;42.570;23.676;2023-03-31T09:59:21;91743.72;;;14.61;54.03
10958;BME280;5531;42.570;23.676;2023-03-31T10:01:52;91742.94;;;14.30;53.70
10958;BME280;5531;42.570;23.676;2023-03-31T10:04:27;91733.59;;;14.04;55.06
10958;BME280;5531;42.570;23.676;2023-03-31T10:06:58;91726.53;;;13.86;55.13
10958;BME280;5531;42.570;23.676;2023-03-31T10:09:30;91729.06;;;13.92;57.73
10958;BME280;5531;42.570;23.676;2023-03-31T10:12:07;91709.25;;;13.90;55.71
10958;BME280;5531;42.570;23.676;2023-03-31T10:14:40;91714.00;;;13.69;55.99
10958;BME280;5531;42.570;23.676;2023-03-31T10:17:13;91701.22;;;13.85;56.63
10958;BME280;5531;42.570;23.676;2023-03-31T10:19:47;91697.94;;;14.01;56.34
10958;BME280;5531;42.570;23.676;2023-03-31T11:50:01;91635.13;;;15.40;49.97
10958;BME280;5531;42.570;23.676;2023-03-31T11:52:33;91627.03;;;15.18;51.77
10958;BME280;5531;42.570;23.676;2023-03-31T11:55:12;91624.94;;;14.91;53.30
10958;BME280;5531;42.570;23.676;2023-03-31T11:57:47;91617.13;;;14.73;54.70
10958;BME280;5531;42.570;23.676;2023-03-31T12:00:20;91625.06;;;14.61;53.33
10958;BME280;5531;42.570;23.676;2023-03-31T12:02:53;91623.69;;;14.70;54.81
10958;BME280;5531;42.570;23.676;2023-03-31T12:05:27;91620.00;;;14.71;52.83
10958;BME280;5531;42.570;23.676;2023-03-31T12:08:02;91614.28;;;14.74;52.58
10958;BME280;5531;42.570;23.676;2023-03-31T12:10:35;91610.06;;;14.73;52.18
10958;BME280;5531;42.570;23.676;2023-03-31T12:13:19;91607.84;;;14.82;52.13
10958;BME280;5531;42.570;23.676;2023-03-31T12:15:59;91596.75;;;14.80;52.42
10958;BME280;5531;42.570;23.676;2023-03-31T12:18:34;91593.59;;;14.95;52.56
10958;BME280;5531;42.570;23.676;2023-03-31T12:21:09;91589.81;;;14.91;53.17
10958;BME280;5531;42.570;23.676;2023-03-31T12:23:42;91579.75;;;14.76;53.77
10958;BME280;5531;42.570;23.676;2023-03-31T12:26:22;91581.16;;;14.78;54.16
10958;BME280;5531;42.570;23.676;2023-03-31T12:28:56;91576.91;;;14.77;53.78
10958;BME280;5531;42.570;23.676;2023-03-31T12:31:27;91575.28;;;14.88;52.50
10958;BME280;5531;42.570;23.676;2023-03-31T12:34:00;91575.56;;;15.03;52.37
10958;BME280;5531;42.570;23.676;2023-03-31T12:36:45;91572.88;;;15.15;53.80
10958;BME280;5531;42.570;23.676;2023-03-31T12:39:27;91566.34;;;15.18;52.66
10958;BME280;5531;42.570;23.676;2023-03-31T12:42:13;91572.66;;;15.17;51.66
10958;BME280;5531;42.570;23.676;2023-03-31T12:44:51;91569.31;;;15.21;51.33
10958;BME280;5531;42.570;23.676;2023-03-31T12:47:40;91559.38;;;15.40;52.09
10958;BME280;5531;42.570;23.676;2023-03-31T12:50:39;91559.63;;;15.56;51.38
10958;BME280;5531;42.570;23.676;2023-03-31T12:53:23;91556.19;;;15.55;50.93
10958;BME280;5531;42.570;23.676;2023-03-31T12:55:57;91564.19;;;15.61;51.67
10958;BME280;5531;42.570;23.676;2023-03-31T12:58:43;91564.75;;;15.46;50.80
10958;BME280;5531;42.570;23.676;2023-03-31T13:01:14;91559.47;;;15.46;51.55
10958;BME280;5531;42.570;23.676;2023-03-31T13:03:47;91549.41;;;15.60;51.80
10958;BME280;5531;42.570;23.676;2023-03-31T13:06:45;91541.84;;;15.80;51.26
10958;BME280;5531;42.570;23.676;2023-03-31T13:09:43;91518.06;;;15.80;50.79
10958;BME280;5531;42.570;23.676;2023-03-31T13:12:16;91529.59;;;15.91;49.45
10958;BME280;5531;42.570;23.676;2023-03-31T13:14:46;91524.88;;;15.93;49.60
10958;BME280;5531;42.570;23.676;2023-03-31T13:17:25;91513.97;;;16.06;49.83
10958;BME280;5531;42.570;23.676;2023-03-31T13:19:56;91517.34;;;16.02;49.32
10958;BME280;5531;42.570;23.676;2023-03-31T13:22:45;91504.69;;;16.04;49.67
10958;BME280;5531;42.570;23.676;2023-03-31T13:25:43;91499.47;;;15.92;50.70
10958;BME280;5531;42.570;23.676;2023-03-31T13:28:28;91506.84;;;15.90;50.82
10958;BME280;5531;42.570;23.676;2023-03-31T13:31:01;91501.25;;;15.86;51.31
10958;BME280;5531;42.570;23.676;2023-03-31T13:33:34;91495.97;;;15.86;50.22
10958;BME280;5531;42.570;23.676;2023-03-31T13:36:18;91487.72;;;16.00;49.91
10958;BME280;5531;42.570;23.676;2023-03-31T13:39:02;91475.16;;;16.29;49.88
10958;BME280;5531;42.570;23.676;2023-03-31T13:41:47;91473.06;;;16.75;47.38
10958;BME280;5531;42.570;23.676;2023-03-31T13:44:46;91470.81;;;16.84;46.97
10958;BME280;5531;42.570;23.676;2023-03-31T13:47:51;91458.81;;;16.76;47.93
10958;BME280;5531;42.570;23.676;2023-03-31T13:50:40;91450.34;;;16.52;47.83
10958;BME280;5531;42.570;23.676;2023-03-31T13:53:31;91442.78;;;16.17;49.38
10958;BME280;5531;42.570;23.676;2023-03-31T13:56:32;91445.38;;;15.94;49.10
10958;BME280;5531;42.570;23.676;2023-03-31T14:02:32;91433.31;;;15.82;49.31
10958;BME280;5531;42.570;23.676;2023-03-31T14:05:18;91441.59;;;15.73;50.76
10958;BME280;5531;42.570;23.676;2023-03-31T14:07:54;91443.00;;;15.76;50.29
10958;BME280;5531;42.570;23.676;2023-03-31T14:10:28;91426.66;;;15.96;49.55
10958;BME280;5531;42.570;23.676;2023-03-31T14:13:09;91426.81;;;16.28;48.64
10958;BME280;5531;42.570;23.676;2023-03-31T14:15:45;91426.72;;;16.45;47.61
10958;BME280;5531;42.570;23.676;2023-03-31T14:18:21;91424.81;;;16.63;48.46
10958;BME280;5531;42.570;23.676;2023-03-31T14:23:50;91426.16;;;16.65;48.55
10958;BME280;5531;42.570;23.676;2023-03-31T14:29:25;91427.03;;;16.93;47.23
10958;BME280;5531;42.570;23.676;2023-03-31T14:32:05;91423.03;;;16.91;47.44
10958;BME280;5531;42.570;23.676;2023-03-31T14:34:49;91422.28;;;16.73;47.34
10958;BME280;5531;42.570;23.676;2023-03-31T14:37:22;91426.59;;;16.57;47.99
10958;BME280;5531;42.570;23.676;2023-03-31T14:39:54;91416.91;;;16.19;48.88
10958;BME280;5531;42.570;23.676;2023-03-31T14:42:26;91421.41;;;16.01;49.50
10958;BME280;5531;42.570;23.676;2023-03-31T14:45:02;91420.22;;;15.92;49.63
10958;BME280;5531;42.570;23.676;2023-03-31T14:47:34;91412.69;;;16.01;49.23
10958;BME280;5531;42.570;23.676;2023-03-31T14:50:10;91407.13;;;16.19;50.94
10958;BME280;5531;42.570;23.676;2023-03-31T14:52:45;91413.00;;;16.48;49.23
10958;BME280;5531;42.570;23.676;2023-03-31T14:55:17;91414.97;;;16.58;48.81
10958;BME280;5531;42.570;23.676;2023-03-31T14:57:49;91404.00;;;16.72;48.49
10958;BME280;5531;42.570;23.676;2023-03-31T15:00:24;91403.25;;;16.98;48.93
10958;BME280;5531;42.570;23.676;2023-03-31T15:02:57;91410.94;;;17.32;47.72
10958;BME280;5531;42.570;23.676;2023-03-31T15:05:29;91399.09;;;17.77;46.01
10958;BME280;5531;42.570;23.676;2023-03-31T15:08:01;91393.78;;;18.20;44.94
10958;BME280;5531;42.570;23.676;2023-03-31T15:10:35;91387.44;;;18.95;43.14
10958;BME280;5531;42.570;23.676;2023-03-31T15:13:07;91386.16;;;19.54;41.62
10958;BME280;5531;42.570;23.676;2023-03-31T15:15:37;91400.78;;;19.92;40.71
10958;BME280;5531;42.570;23.676;2023-03-31T15:18:10;91389.81;;;20.25;40.56
10958;BME280;5531;42.570;23.676;2023-03-31T15:20:40;91386.38;;;20.14;40.47
10958;BME280;5531;42.570;23.676;2023-03-31T15:23:19;91387.47;;;19.92;41.49
10958;BME280;5531;42.570;23.676;2023-03-31T15:25:51;91392.50;;;19.99;40.69
10958;BME280;5531;42.570;23.676;2023-03-31T15:28:25;91389.59;;;20.01;39.91
10958;BME280;5531;42.570;23.676;2023-03-31T15:30:56;91385.31;;;20.10;40.87